createdAt,value
2019-04-10T00:01:55.138Z,40.77
2019-04-10T00:04:23.595Z,37.83
2019-04-10T00:06:52.259Z,40.83
2019-04-10T00:09:21.038Z,41.47
2019-04-10T00:11:49.483Z,37.77
2019-04-10T00:14:18.570Z,42.47
2019-04-10T00:16:46.990Z,36.27
2019-04-10T00:19:15.338Z,38.63
2019-04-10T00:21:43.644Z,38.67
2019-04-10T00:24:12.098Z,38.23
2019-04-10T00:26:41.620Z,38.93
2019-04-10T00:29:10.054Z,38.13
2019-04-10T00:31:38.362Z,41.73
2019-04-10T00:34:07.377Z,38.90
2019-04-10T00:36:35.784Z,37.60
2019-04-10T00:39:06.457Z,38.90
2019-04-10T00:41:34.835Z,40.90
2019-04-10T00:44:03.607Z,41.80
2019-04-10T00:46:32.554Z,41.37
2019-04-10T00:49:00.909Z,43.60
2019-04-10T00:51:29.198Z,46.93
2019-04-10T00:53:57.609Z,41.60
2019-04-10T00:56:26.311Z,41.67
2019-04-10T00:58:55.415Z,44.47
2019-04-10T01:01:23.953Z,39.70
2019-04-10T01:03:52.296Z,42.20
2019-04-10T01:06:20.705Z,42.17
2019-04-10T01:08:49.284Z,39.67
2019-04-10T01:11:17.670Z,40.80
2019-04-10T01:13:46.035Z,42.13
2019-04-10T01:16:16.270Z,44.03
2019-04-10T01:18:45.615Z,43.43
2019-04-10T01:21:14.487Z,43.20
2019-04-10T01:23:42.852Z,41.93
2019-04-10T01:26:11.196Z,44.47
2019-04-10T01:28:40.545Z,44.07
2019-04-10T01:31:09.263Z,46.57
2019-04-10T01:33:37.554Z,39.87
2019-04-10T01:36:06.935Z,42.93
2019-04-10T01:38:35.617Z,41.63
2019-04-10T01:41:04.264Z,42.80
2019-04-10T01:43:32.967Z,42.43
2019-04-10T01:46:02.107Z,43.47
2019-04-10T01:48:30.604Z,44.03
2019-04-10T01:50:59.090Z,41.73
2019-04-10T01:53:28.035Z,40.50
2019-04-10T01:55:57.527Z,42.97
2019-04-10T01:58:27.279Z,41.37
2019-04-10T02:01:03.888Z,46.67
2019-04-10T02:03:32.396Z,43.47
2019-04-10T02:06:01.078Z,45.83
2019-04-10T02:08:29.855Z,43.97
2019-04-10T02:10:58.658Z,46.50
2019-04-10T02:13:27.629Z,49.53
2019-04-10T02:15:56.675Z,46.60
2019-04-10T02:18:25.537Z,45.90
2019-04-10T02:20:53.932Z,49.27
2019-04-10T02:23:22.612Z,52.10
2019-04-10T02:25:50.947Z,53.53
2019-04-10T02:28:19.243Z,58.20
2019-04-10T02:30:47.939Z,62.27
2019-04-10T02:33:17.648Z,59.63
2019-04-10T02:35:47.767Z,60.27
2019-04-10T02:38:33.865Z,70.13
2019-04-10T02:40:47.492Z,62.67
2019-04-10T02:43:16.386Z,69.63
2019-04-10T02:45:44.764Z,63.90
2019-04-10T02:48:13.172Z,67.83
2019-04-10T02:50:42.846Z,72.53
2019-04-10T02:53:13.075Z,71.50
2019-04-10T02:55:43.145Z,74.70
2019-04-10T02:58:11.678Z,69.80
2019-04-10T03:00:42.032Z,79.00
2019-04-10T03:03:11.887Z,77.63
2019-04-10T03:05:40.768Z,73.40
2019-04-10T03:08:11.233Z,72.53
2019-04-10T03:10:47.413Z,77.60
2019-04-10T03:13:09.518Z,81.03
2019-04-10T03:15:39.204Z,76.97
2019-04-10T03:18:08.341Z,79.50
2019-04-10T03:20:36.705Z,75.07
2019-04-10T03:23:05.315Z,74.20
2019-04-10T03:25:35.093Z,82.20
2019-04-10T03:28:03.579Z,78.90
2019-04-10T03:30:33.998Z,75.37
2019-04-10T03:33:06.607Z,78.57
2019-04-10T03:35:35.669Z,78.70
2019-04-10T03:38:05.733Z,80.20
2019-04-10T03:40:34.137Z,79.17
2019-04-10T03:43:03.541Z,80.37
2019-04-10T03:45:32.780Z,83.60
2019-04-10T03:48:02.003Z,81.50
2019-04-10T03:50:30.373Z,76.73
2019-04-10T03:53:00.262Z,80.10
2019-04-10T03:55:29.231Z,76.50
2019-04-10T03:57:59.247Z,78.20
2019-04-10T04:00:27.886Z,83.07
2019-04-10T04:02:56.314Z,77.33
2019-04-10T04:05:24.674Z,80.13
2019-04-10T04:07:53.043Z,86.37
2019-04-10T04:10:21.463Z,86.73
2019-04-10T04:12:50.758Z,85.60
2019-04-10T04:15:19.882Z,79.90
2019-04-10T04:17:48.566Z,76.27
2019-04-10T04:20:17.020Z,83.40
2019-04-10T04:22:46.134Z,81.23
2019-04-10T04:25:14.892Z,82.87
2019-04-10T04:27:44.195Z,82.27
2019-04-10T04:30:12.760Z,89.23
2019-04-10T04:32:42.107Z,79.97
2019-04-10T04:35:11.221Z,88.87
2019-04-10T04:37:42.241Z,85.37
2019-04-10T04:40:11.110Z,88.40
2019-04-10T04:42:40.646Z,84.20
2019-04-10T04:45:09.197Z,79.33
2019-04-10T04:47:37.505Z,84.93
2019-04-10T04:50:06.093Z,79.50
2019-04-10T04:52:34.990Z,87.07
2019-04-10T04:57:43.198Z,88.27
2019-04-10T05:00:11.804Z,79.97
2019-04-10T05:02:40.166Z,85.90
2019-04-10T05:05:08.846Z,78.97
2019-04-10T05:07:37.635Z,86.60
2019-04-10T05:10:11.107Z,81.70
2019-04-10T05:12:39.567Z,89.57
2019-04-10T05:15:09.451Z,93.90
2019-04-10T05:17:39.320Z,87.40
2019-04-10T05:20:09.068Z,90.10
2019-04-10T05:22:37.658Z,84.80
2019-04-10T05:25:06.914Z,87.83
2019-04-10T05:27:35.238Z,87.70
2019-04-10T05:30:04.486Z,85.60
2019-04-10T05:32:32.979Z,91.17
2019-04-10T05:35:04.311Z,98.27
2019-04-10T05:37:31.684Z,89.33
2019-04-10T05:39:59.965Z,90.63
2019-04-10T05:42:28.979Z,81.13
2019-04-10T05:44:58.659Z,91.67
2019-04-10T05:47:28.029Z,88.30
2019-04-10T05:49:57.631Z,87.63
2019-04-10T05:52:26.933Z,86.23
2019-04-10T05:54:55.741Z,88.50
2019-04-10T05:57:24.583Z,94.57
2019-04-10T05:59:53.045Z,85.73
2019-04-10T06:02:21.411Z,84.10
2019-04-10T06:04:49.821Z,86.33
2019-04-10T06:07:19.172Z,91.57
2019-04-10T06:09:55.902Z,95.83
2019-04-10T06:12:18.141Z,79.20
2019-04-10T06:14:46.439Z,88.87
2019-04-10T06:17:14.804Z,91.47
2019-04-10T06:19:43.333Z,78.80
2019-04-10T06:22:12.747Z,85.50
2019-04-10T06:24:41.189Z,77.47
2019-04-10T06:27:10.349Z,81.97
2019-04-10T06:29:39.310Z,92.67
2019-04-10T06:32:07.917Z,81.60
2019-04-10T06:34:36.451Z,86.53
2019-04-10T06:37:06.116Z,87.13
2019-04-10T06:39:35.229Z,84.17
2019-04-10T06:42:04.519Z,87.53
2019-04-10T06:44:34.169Z,88.63
2019-04-10T06:47:02.711Z,83.40
2019-04-10T06:49:31.168Z,77.77
2019-04-10T06:51:59.752Z,82.63
2019-04-10T06:54:29.194Z,83.63
2019-04-10T06:56:58.601Z,82.57
2019-04-10T06:59:28.144Z,75.00
2019-04-10T07:02:05.649Z,83.03
2019-04-10T07:04:28.487Z,84.53
2019-04-10T07:07:04.667Z,84.67
2019-04-10T07:09:27.240Z,81.50
2019-04-10T07:11:59.891Z,79.93
2019-04-10T07:14:26.809Z,77.67
2019-04-10T07:16:55.242Z,86.53
2019-04-10T07:19:24.141Z,83.10
2019-04-10T07:21:52.429Z,88.20
2019-04-10T07:24:20.876Z,85.00
2019-04-10T07:26:50.786Z,86.00
2019-04-10T07:29:21.019Z,87.43
2019-04-10T07:31:49.436Z,82.13
2019-04-10T07:34:23.875Z,86.87
2019-04-10T07:36:47.943Z,84.47
2019-04-10T07:39:17.260Z,85.30
2019-04-10T07:41:45.593Z,76.53
2019-04-10T07:44:14.077Z,83.77
2019-04-10T07:46:42.982Z,82.80
2019-04-10T07:49:12.926Z,79.70
2019-04-10T07:51:42.396Z,88.80
2019-04-10T07:54:11.769Z,75.63
2019-04-10T07:56:40.329Z,78.47
2019-04-10T07:59:08.848Z,83.90
2019-04-10T08:01:37.593Z,88.13
2019-04-10T08:04:06.292Z,76.27
2019-04-10T08:06:35.300Z,75.47
2019-04-10T08:09:05.091Z,79.27
2019-04-10T08:11:33.808Z,87.20
2019-04-10T08:14:03.469Z,75.73
2019-04-10T08:16:32.896Z,73.73
2019-04-10T08:19:01.890Z,78.80
2019-04-10T08:21:31.592Z,77.70
2019-04-10T08:24:00.429Z,76.13
2019-04-10T08:26:28.805Z,79.50
2019-04-10T08:28:57.310Z,74.67
2019-04-10T08:31:25.926Z,83.90
2019-04-10T08:33:54.757Z,75.10
2019-04-10T08:36:23.499Z,71.20
2019-04-10T08:38:52.804Z,72.27
2019-04-10T08:41:21.358Z,69.17
2019-04-10T08:43:50.305Z,72.00
2019-04-10T08:46:19.752Z,74.03
2019-04-10T08:48:48.130Z,71.63
2019-04-10T08:51:17.084Z,68.50
2019-04-10T08:53:46.704Z,67.90
2019-04-10T08:56:16.138Z,70.43
2019-04-10T08:58:45.343Z,68.23
2019-04-10T09:01:13.640Z,68.60
2019-04-10T09:03:43.312Z,73.47
2019-04-10T09:06:11.858Z,69.67
2019-04-10T09:08:41.964Z,72.10
2019-04-10T09:11:11.227Z,68.07
2019-04-10T09:13:40.897Z,71.57
2019-04-10T09:16:10.046Z,74.67
2019-04-10T09:18:39.058Z,68.50
2019-04-10T09:21:07.424Z,64.17
2019-04-10T09:23:42.903Z,66.87
2019-04-10T09:26:05.953Z,70.13
2019-04-10T09:28:34.832Z,64.93
2019-04-10T09:31:03.373Z,64.47
2019-04-10T09:33:32.436Z,65.50
2019-04-10T09:36:00.962Z,66.83
2019-04-10T09:38:30.523Z,66.53
2019-04-10T09:40:59.423Z,63.97
2019-04-10T09:43:27.932Z,67.90
2019-04-10T09:45:56.423Z,68.47
2019-04-10T09:48:25.049Z,65.73
2019-04-10T09:50:53.460Z,63.53
2019-04-10T09:53:22.341Z,68.03
2019-04-10T09:55:50.858Z,66.83
2019-04-10T09:58:19.876Z,66.57
2019-04-10T10:00:48.346Z,63.30
2019-04-10T10:03:17.380Z,60.47
2019-04-10T10:05:46.684Z,69.13
2019-04-10T10:08:16.145Z,71.67
2019-04-10T10:10:45.013Z,63.70
2019-04-10T10:13:13.445Z,65.07
2019-04-10T10:15:41.861Z,63.20
2019-04-10T10:18:10.946Z,67.70
2019-04-10T10:20:39.665Z,64.80
2019-04-10T10:23:08.128Z,65.67
2019-04-10T10:25:37.465Z,62.80
2019-04-10T10:28:06.988Z,67.40
2019-04-10T10:30:35.726Z,65.43
2019-04-10T10:33:05.552Z,67.00
2019-04-10T10:35:34.009Z,69.47
2019-04-10T10:38:03.807Z,66.70
2019-04-10T10:40:32.381Z,66.70
2019-04-10T10:43:00.788Z,63.67
2019-04-10T10:45:29.269Z,65.57
2019-04-10T10:47:57.778Z,68.70
2019-04-10T10:50:28.913Z,62.43
2019-04-10T10:52:57.665Z,68.57
2019-04-10T10:55:26.019Z,64.77
2019-04-10T10:57:55.398Z,69.67
2019-04-10T11:00:23.812Z,72.60
2019-04-10T11:02:52.241Z,66.20
2019-04-10T11:05:21.119Z,64.57
2019-04-10T11:07:51.375Z,70.13
2019-04-10T11:12:50.733Z,59.63
2019-04-10T11:15:20.192Z,64.70
2019-04-10T11:17:49.865Z,69.80
2019-04-10T11:20:20.469Z,69.77
2019-04-10T11:22:49.639Z,70.53
2019-04-10T11:25:18.154Z,68.87
2019-04-10T11:27:47.538Z,70.13
2019-04-10T11:30:16.168Z,71.17
2019-04-10T11:32:44.646Z,74.60
2019-04-10T11:35:13.202Z,68.40
2019-04-10T11:37:44.763Z,71.07
2019-04-10T11:40:13.024Z,68.43
2019-04-10T11:42:42.977Z,73.10
2019-04-10T11:45:16.198Z,67.70
2019-04-10T11:47:42.677Z,70.13
2019-04-10T11:52:49.986Z,67.53
2019-04-10T11:55:16.936Z,66.53
2019-04-10T11:57:45.901Z,67.70
2019-04-10T12:00:18.836Z,76.23
2019-04-10T12:02:49.295Z,62.57
2019-04-10T12:05:19.918Z,60.73
2019-04-10T12:12:48.168Z,69.17
2019-04-10T12:15:17.256Z,61.37
2019-04-10T12:17:46.519Z,65.07
2019-04-10T12:20:16.651Z,63.27
2019-04-10T12:22:46.083Z,69.17
2019-04-10T12:25:15.519Z,64.50
2019-04-10T12:27:45.079Z,60.93
2019-04-10T12:30:13.838Z,62.60
2019-04-10T12:32:43.074Z,62.77
2019-04-10T12:35:11.518Z,63.40
2019-04-10T12:37:39.893Z,65.20
2019-04-10T12:40:09.761Z,64.00
2019-04-10T12:42:38.724Z,66.57
2019-04-10T12:45:08.296Z,68.23
2019-04-10T12:47:37.724Z,63.97
2019-04-10T12:50:08.104Z,65.03
2019-04-10T12:52:36.750Z,62.80
2019-04-10T12:55:08.259Z,65.63
2019-04-10T12:57:37.083Z,61.03
2019-04-10T13:00:09.840Z,66.87
2019-04-10T13:02:38.649Z,65.40
2019-04-10T13:05:07.426Z,59.17
2019-04-10T13:07:36.039Z,68.20
2019-04-10T13:10:27.429Z,61.10
2019-04-10T13:12:55.924Z,59.37
2019-04-10T13:15:25.503Z,64.77
2019-04-10T13:17:54.025Z,59.27
2019-04-10T13:20:22.404Z,67.70
2019-04-10T13:22:50.847Z,61.93
2019-04-10T13:25:19.328Z,63.17
2019-04-10T13:27:47.844Z,66.57
2019-04-10T13:30:16.633Z,68.63
2019-04-10T13:32:44.906Z,63.40
2019-04-10T13:35:13.717Z,63.23
2019-04-10T13:37:42.089Z,62.57
2019-04-10T13:40:11.244Z,58.17
2019-04-10T13:42:39.714Z,54.73
2019-04-10T13:45:08.481Z,57.27
2019-04-10T13:47:36.896Z,57.47
2019-04-10T13:50:06.821Z,56.43
2019-04-10T13:52:36.971Z,55.00
2019-04-10T13:55:07.397Z,51.70
2019-04-10T13:57:36.995Z,58.50
2019-04-10T14:00:06.401Z,54.00
2019-04-10T14:02:37.533Z,52.37
2019-04-10T14:05:09.993Z,55.03
2019-04-10T14:07:38.469Z,58.57
2019-04-10T14:10:08.684Z,52.97
2019-04-10T14:12:37.079Z,50.03
2019-04-10T14:15:05.778Z,53.43
2019-04-10T14:17:34.112Z,47.90
2019-04-10T14:20:02.870Z,53.53
2019-04-10T14:22:31.581Z,53.60
2019-04-10T14:25:00.970Z,48.50
2019-04-10T14:27:30.174Z,50.67
2019-04-10T14:29:58.760Z,48.60
2019-04-10T14:32:29.239Z,48.23
2019-04-10T14:34:58.783Z,50.53
2019-04-10T14:37:27.441Z,46.53
2019-04-10T14:39:55.975Z,46.50
2019-04-10T14:42:24.541Z,47.97
2019-04-10T14:44:53.152Z,47.87
2019-04-10T14:47:21.884Z,44.13
2019-04-10T14:49:53.658Z,43.73
2019-04-10T14:52:21.662Z,50.93
2019-04-10T14:54:50.322Z,45.30
2019-04-10T14:57:18.948Z,45.57
2019-04-10T14:59:49.147Z,43.30
2019-04-10T15:02:18.867Z,38.80
2019-04-10T15:04:47.215Z,38.90
2019-04-10T15:07:15.782Z,37.87
2019-04-10T15:09:44.283Z,37.27
2019-04-10T15:12:12.659Z,35.33
2019-04-10T15:14:41.143Z,37.17
2019-04-10T15:17:09.857Z,34.27
2019-04-10T15:19:38.158Z,34.00
2019-04-10T15:22:07.410Z,35.30
2019-04-10T15:24:35.849Z,35.20
2019-04-10T15:27:04.789Z,42.47
2019-04-10T15:29:33.546Z,35.63
2019-04-10T15:32:02.167Z,36.27
2019-04-10T15:34:30.665Z,38.17
2019-04-10T15:36:59.023Z,38.87
2019-04-10T15:39:33.924Z,33.87
2019-04-10T15:41:57.517Z,35.17
2019-04-10T15:44:26.046Z,40.60
2019-04-10T15:46:54.477Z,35.30
2019-04-10T15:49:22.999Z,36.93
2019-04-10T15:51:51.374Z,34.87
2019-04-10T15:54:19.780Z,32.03
2019-04-10T15:56:48.313Z,29.13
2019-04-10T15:59:16.838Z,32.27
2019-04-10T16:01:45.394Z,32.07
2019-04-10T16:04:14.883Z,36.33
2019-04-10T16:06:43.496Z,33.97
2019-04-10T16:09:14.814Z,36.13
2019-04-10T16:11:45.923Z,33.47
2019-04-10T16:14:20.837Z,37.17
2019-04-10T16:17:02.655Z,34.13
2019-04-10T16:19:36.595Z,52.13
2019-04-10T16:22:06.869Z,36.07
2019-04-10T16:24:35.206Z,33.73
2019-04-10T16:27:03.645Z,39.27
2019-04-10T16:29:32.341Z,36.13
2019-04-10T16:32:00.649Z,34.80
2019-04-10T16:34:30.124Z,35.40
2019-04-10T16:36:59.891Z,41.93
2019-04-10T16:39:28.383Z,35.70
2019-04-10T16:41:57.875Z,34.00
2019-04-10T16:44:27.283Z,34.77
2019-04-10T16:46:55.694Z,34.07
2019-04-10T16:49:24.634Z,39.93
2019-04-10T16:51:52.969Z,37.10
2019-04-10T16:54:21.619Z,36.33
2019-04-10T16:56:50.282Z,36.13
2019-04-10T16:59:18.680Z,36.30
2019-04-10T17:01:47.141Z,35.30
2019-04-10T17:04:16.735Z,31.50
2019-04-10T17:06:46.383Z,29.93
2019-04-10T17:09:16.632Z,36.83
2019-04-10T17:11:45.248Z,34.23
2019-04-10T17:14:13.665Z,30.77
2019-04-10T17:16:42.050Z,36.27
2019-04-10T17:19:10.443Z,33.37
2019-04-10T17:21:38.801Z,35.23
2019-04-10T17:24:07.256Z,42.27
2019-04-10T17:26:35.721Z,38.93
2019-04-10T17:29:05.042Z,38.20
2019-04-10T17:31:34.912Z,36.07
2019-04-10T17:34:03.784Z,45.07
2019-04-10T17:36:32.806Z,41.53
2019-04-10T17:39:02.506Z,45.60
2019-04-10T17:41:31.416Z,45.40
2019-04-10T17:44:02.016Z,44.77
2019-04-10T17:46:31.176Z,43.80
2019-04-10T17:49:01.094Z,52.43
2019-04-10T17:51:30.321Z,46.00
2019-04-10T17:53:59.932Z,49.20
2019-04-10T17:56:28.506Z,45.47
2019-04-10T17:58:58.098Z,51.00
2019-04-10T18:01:27.136Z,50.60
2019-04-10T18:03:59.005Z,48.97
2019-04-10T18:06:25.935Z,45.17
2019-04-10T18:08:54.851Z,45.00
2019-04-10T18:11:24.543Z,48.47
2019-04-10T18:13:53.141Z,47.37
2019-04-10T18:16:23.098Z,53.67
2019-04-10T18:18:51.782Z,46.87
2019-04-10T18:21:22.408Z,44.40
2019-04-10T18:23:51.476Z,48.10
2019-04-10T18:26:21.083Z,49.93
2019-04-10T18:28:49.788Z,45.93
2019-04-10T18:31:18.722Z,43.30
2019-04-10T18:33:47.292Z,47.00
2019-04-10T18:36:16.148Z,48.10
2019-04-10T18:38:44.560Z,44.20
2019-04-10T18:41:13.764Z,48.90
2019-04-10T18:43:42.540Z,48.00
2019-04-10T18:46:14.460Z,50.67
2019-04-10T18:48:44.237Z,44.93
2019-04-10T18:51:12.495Z,53.50
2019-04-10T18:53:42.307Z,45.33
2019-04-10T18:56:11.229Z,43.77
2019-04-10T18:58:47.924Z,44.13
2019-04-10T19:01:34.834Z,43.90
2019-04-10T19:04:10.404Z,44.33
2019-04-10T19:06:43.301Z,40.03
2019-04-10T19:09:18.394Z,42.23
2019-04-10T19:11:42.027Z,43.20
2019-04-10T19:14:10.438Z,42.03
2019-04-10T19:16:39.582Z,45.73
2019-04-10T19:19:08.487Z,42.87
2019-04-10T19:21:37.692Z,48.73
2019-04-10T19:24:06.098Z,45.63
2019-04-10T19:26:35.572Z,38.63
2019-04-10T19:29:05.313Z,44.40
2019-04-10T19:31:36.887Z,44.73
2019-04-10T19:34:05.211Z,45.90
2019-04-10T19:36:34.439Z,42.43
2019-04-10T19:39:03.011Z,43.63
2019-04-10T19:41:36.214Z,42.07
2019-04-10T19:44:02.423Z,43.07
2019-04-10T19:46:31.400Z,41.13
2019-04-10T19:48:59.879Z,41.83
2019-04-10T19:51:28.186Z,43.87
2019-04-10T19:53:57.651Z,42.60
2019-04-10T19:56:26.674Z,41.60
2019-04-10T19:58:55.150Z,40.13
2019-04-10T20:01:26.762Z,41.33
2019-04-10T20:03:54.227Z,38.87
2019-04-10T20:06:24.246Z,40.93
2019-04-10T20:08:53.081Z,37.77
2019-04-10T20:11:31.883Z,37.20
2019-04-10T20:13:51.548Z,37.10
2019-04-10T20:16:20.051Z,39.73
2019-04-10T20:18:48.765Z,38.70
2019-04-10T20:21:17.556Z,38.63
2019-04-10T20:23:46.129Z,35.07
2019-04-10T20:26:14.818Z,36.60
2019-04-10T20:28:43.223Z,42.40
2019-04-10T20:31:13.213Z,34.60
2019-04-10T20:33:41.686Z,35.93
2019-04-10T20:36:11.042Z,35.33
2019-04-10T20:38:39.319Z,34.43
2019-04-10T20:41:08.671Z,34.97
2019-04-10T20:43:37.361Z,35.47
2019-04-10T20:46:06.660Z,36.00
2019-04-10T20:48:36.138Z,36.53
2019-04-10T20:51:06.070Z,31.80
2019-04-10T20:53:34.501Z,35.37
2019-04-10T20:56:03.028Z,32.03
2019-04-10T20:58:31.465Z,35.13
2019-04-10T21:00:59.955Z,38.40
2019-04-10T21:03:28.452Z,37.93
2019-04-10T21:05:56.808Z,39.60
2019-04-10T21:08:25.561Z,34.27
2019-04-10T21:10:54.807Z,38.57
2019-04-10T21:13:23.544Z,33.50
2019-04-10T21:15:52.896Z,31.17
2019-04-10T21:18:22.184Z,33.50
2019-04-10T21:20:51.427Z,34.33
2019-04-10T21:23:19.817Z,34.13
2019-04-10T21:25:48.134Z,29.07
2019-04-10T21:28:16.453Z,28.70
2019-04-10T21:30:52.878Z,29.93
2019-04-10T21:33:28.873Z,29.00
2019-04-10T21:35:57.531Z,30.93
2019-04-10T21:38:25.867Z,27.17
2019-04-10T21:40:55.287Z,29.57
2019-04-10T21:43:26.331Z,29.17
2019-04-10T21:45:55.395Z,33.30
2019-04-10T21:48:24.607Z,27.47
2019-04-10T21:50:53.769Z,27.37
2019-04-10T21:53:22.217Z,29.17
2019-04-10T21:55:51.445Z,24.50
2019-04-10T21:58:19.977Z,28.00
2019-04-10T22:01:01.644Z,26.43
2019-04-10T22:03:30.159Z,29.27
2019-04-10T22:06:05.965Z,34.50
2019-04-10T22:08:39.399Z,27.93
2019-04-10T22:11:08.545Z,22.13
2019-04-10T22:13:38.007Z,29.80
2019-04-10T22:16:09.361Z,27.90
2019-04-10T22:18:39.337Z,26.57
2019-04-10T22:21:08.277Z,27.03
2019-04-10T22:23:36.710Z,30.73
2019-04-10T22:26:05.277Z,24.30
2019-04-10T22:28:33.676Z,30.37
2019-04-10T22:31:02.364Z,25.57
2019-04-10T22:33:30.733Z,25.10
2019-04-10T22:36:00.210Z,26.93
2019-04-10T22:38:29.344Z,26.40
2019-04-10T22:40:58.111Z,23.33
2019-04-10T22:43:27.841Z,29.67
2019-04-10T22:45:57.023Z,23.60
2019-04-10T22:48:25.366Z,26.63
2019-04-10T22:50:53.787Z,32.00
2019-04-10T22:53:23.383Z,25.87
2019-04-10T22:55:52.850Z,29.17
2019-04-10T22:58:21.256Z,28.70
2019-04-10T23:00:50.998Z,27.40
2019-04-10T23:03:20.226Z,26.20
2019-04-10T23:05:49.000Z,26.77
2019-04-10T23:08:17.673Z,26.70
2019-04-10T23:10:46.100Z,26.10
2019-04-10T23:13:14.500Z,28.67
2019-04-10T23:15:43.943Z,22.67
2019-04-10T23:18:13.061Z,23.27
2019-04-10T23:20:41.782Z,27.00
2019-04-10T23:23:10.666Z,25.67
2019-04-10T23:25:38.975Z,27.50
2019-04-10T23:28:07.493Z,26.13
2019-04-10T23:30:37.087Z,29.77
2019-04-10T23:33:05.936Z,25.13
2019-04-10T23:35:34.336Z,24.33
2019-04-10T23:38:03.573Z,24.80
2019-04-10T23:40:32.770Z,27.03
2019-04-10T23:43:09.635Z,24.20
2019-04-10T23:45:31.504Z,25.20
2019-04-10T23:48:00.347Z,23.53
2019-04-10T23:50:30.189Z,24.00
2019-04-10T23:52:58.650Z,21.60
2019-04-10T23:55:27.926Z,26.30
2019-04-10T23:57:56.387Z,23.57
